createdAt,value
2022-11-15T00:01:10.612Z,11.10
2022-11-15T00:03:37.309Z,11.00
2022-11-15T00:06:05.598Z,11.10
2022-11-15T00:08:33.224Z,11.10
2022-11-15T00:11:02.088Z,11.10
2022-11-15T00:13:30.118Z,11.10
2022-11-15T00:16:01.774Z,11.10
2022-11-15T00:18:29.016Z,11.10
2022-11-15T00:20:56.117Z,11.20
2022-11-15T00:23:23.160Z,11.20
2022-11-15T00:25:57.324Z,11.30
2022-11-15T00:28:24.260Z,11.20
2022-11-15T00:30:51.055Z,11.30
2022-11-15T00:33:18.144Z,11.40
2022-11-15T00:35:44.847Z,11.40
2022-11-15T00:38:11.560Z,11.50
2022-11-15T00:40:38.259Z,11.60
2022-11-15T00:43:05.091Z,11.60
2022-11-15T00:45:31.812Z,11.60
2022-11-15T00:47:58.565Z,11.60
2022-11-15T00:50:25.229Z,11.60
2022-11-15T00:52:51.949Z,11.70
2022-11-15T00:55:19.693Z,11.60
2022-11-15T00:57:47.241Z,11.70
2022-11-15T01:00:14.471Z,11.70
2022-11-15T01:02:41.220Z,11.70
2022-11-15T01:05:08.923Z,11.80
2022-11-15T01:07:35.874Z,11.80
2022-11-15T01:10:02.709Z,11.80
2022-11-15T01:12:29.468Z,11.80
2022-11-15T01:14:56.261Z,11.90
2022-11-15T01:17:23.019Z,11.90
2022-11-15T01:19:50.270Z,11.90
2022-11-15T01:22:17.211Z,11.90
2022-11-15T01:24:43.985Z,11.90
2022-11-15T01:27:10.817Z,11.90
2022-11-15T01:29:37.608Z,12.00
2022-11-15T01:32:04.581Z,12.00
2022-11-15T01:34:31.374Z,12.00
2022-11-15T01:36:58.138Z,12.10
2022-11-15T01:39:25.013Z,12.10
2022-11-15T01:41:51.701Z,12.10
2022-11-15T01:44:43.083Z,12.10
2022-11-15T01:47:28.990Z,12.10
2022-11-15T01:50:01.578Z,12.10
2022-11-15T01:52:31.628Z,12.10
2022-11-15T01:55:10.260Z,12.20
2022-11-15T01:57:37.289Z,12.20
2022-11-15T02:00:06.323Z,12.20
2022-11-15T02:02:35.424Z,12.20
2022-11-15T02:05:02.133Z,12.20
2022-11-15T02:07:30.618Z,12.20
2022-11-15T02:10:03.187Z,12.20
2022-11-15T02:12:32.389Z,12.20
2022-11-15T02:14:59.544Z,12.20
2022-11-15T02:17:47.728Z,12.20
2022-11-15T02:20:20.444Z,12.20
2022-11-15T02:23:15.098Z,12.30
2022-11-15T02:26:05.736Z,12.30
2022-11-15T02:28:40.884Z,12.30
2022-11-15T02:31:31.018Z,12.30
2022-11-15T02:34:22.059Z,12.40
2022-11-15T02:37:07.989Z,12.40
2022-11-15T02:39:42.716Z,12.40
2022-11-15T02:42:34.363Z,12.40
2022-11-15T02:45:07.301Z,12.40
2022-11-15T02:47:38.969Z,12.40
2022-11-15T02:50:10.845Z,12.40
2022-11-15T02:52:37.636Z,12.40
2022-11-15T02:55:04.977Z,12.40
2022-11-15T02:57:53.311Z,12.40
2022-11-15T03:00:21.839Z,12.40
2022-11-15T03:03:17.625Z,12.40
2022-11-15T03:05:57.668Z,12.40
2022-11-15T03:08:33.477Z,12.40
2022-11-15T03:11:10.486Z,12.40
2022-11-15T03:14:14.194Z,12.40
2022-11-15T03:17:03.301Z,12.40
2022-11-15T03:19:37.066Z,12.40
2022-11-15T03:22:07.217Z,12.50
2022-11-15T03:24:37.431Z,12.50
2022-11-15T03:27:06.606Z,12.50
2022-11-15T03:29:37.588Z,12.50
2022-11-15T03:32:27.643Z,12.50
2022-11-15T03:34:57.071Z,12.60
2022-11-15T03:37:30.459Z,12.60
2022-11-15T03:39:57.466Z,12.60
2022-11-15T03:42:49.737Z,12.60
2022-11-15T03:45:32.563Z,12.60
2022-11-15T03:48:25.518Z,12.60
2022-11-15T03:50:53.346Z,12.60
2022-11-15T03:53:20.070Z,12.60
2022-11-15T03:55:46.774Z,12.60
2022-11-15T03:58:13.545Z,12.60
2022-11-15T04:00:40.277Z,12.60
2022-11-15T04:03:08.418Z,12.60
2022-11-15T04:05:35.320Z,12.60
2022-11-15T04:08:02.020Z,12.70
2022-11-15T04:10:28.700Z,12.60
2022-11-15T04:12:55.396Z,12.60
2022-11-15T04:15:24.064Z,12.60
2022-11-15T04:17:53.704Z,12.70
2022-11-15T04:20:49.899Z,12.70
2022-11-15T04:23:37.308Z,12.70
2022-11-15T04:26:06.656Z,12.70
2022-11-15T04:28:33.357Z,12.60
2022-11-15T04:31:00.552Z,12.60
2022-11-15T04:33:27.283Z,12.60
2022-11-15T04:36:12.478Z,12.60
2022-11-15T04:38:39.159Z,12.60
2022-11-15T04:41:05.895Z,12.60
2022-11-15T04:43:33.052Z,12.60
2022-11-15T04:46:00.033Z,12.60
2022-11-15T04:48:26.732Z,12.60
2022-11-15T04:50:53.509Z,12.70
2022-11-15T04:53:20.179Z,12.70
2022-11-15T04:55:47.729Z,12.70
2022-11-15T04:58:14.693Z,12.70
2022-11-15T05:00:41.463Z,12.70
2022-11-15T05:03:29.183Z,12.70
2022-11-15T05:05:56.516Z,12.80
2022-11-15T05:08:23.594Z,12.80
2022-11-15T05:10:50.458Z,12.70
2022-11-15T05:13:17.784Z,12.70
2022-11-15T05:15:44.594Z,12.60
2022-11-15T05:18:12.263Z,12.60
2022-11-15T05:20:39.072Z,12.60
2022-11-15T05:23:05.933Z,12.60
2022-11-15T05:25:32.768Z,12.60
2022-11-15T05:27:59.590Z,12.60
2022-11-15T05:30:26.510Z,12.60
2022-11-15T05:33:04.182Z,12.50
2022-11-15T05:35:46.436Z,12.50
2022-11-15T05:38:13.384Z,12.50
2022-11-15T05:40:40.217Z,12.50
2022-11-15T05:43:07.348Z,12.50
2022-11-15T05:45:36.100Z,12.50
2022-11-15T05:48:08.612Z,12.40
2022-11-15T05:50:39.255Z,12.40
2022-11-15T05:53:06.911Z,12.30
2022-11-15T05:55:33.644Z,12.20
2022-11-15T05:58:01.629Z,12.20
2022-11-15T06:00:29.429Z,12.10
2022-11-15T06:02:56.159Z,12.10
2022-11-15T06:05:22.891Z,12.10
2022-11-15T06:07:49.872Z,12.10
2022-11-15T06:10:17.728Z,12.00
2022-11-15T06:12:44.404Z,12.00
2022-11-15T06:15:11.169Z,12.00
2022-11-15T06:17:38.103Z,11.90
2022-11-15T06:20:05.100Z,11.90
2022-11-15T06:22:31.878Z,12.00
2022-11-15T06:25:02.832Z,12.00
2022-11-15T06:27:33.812Z,11.90
2022-11-15T06:30:00.708Z,11.90
2022-11-15T06:32:27.465Z,11.90
2022-11-15T06:34:54.133Z,11.90
2022-11-15T06:37:20.919Z,11.90
2022-11-15T06:39:47.562Z,11.80
2022-11-15T06:42:14.221Z,11.90
2022-11-15T06:44:40.959Z,11.80
2022-11-15T06:47:07.756Z,11.90
2022-11-15T06:49:34.536Z,11.80
2022-11-15T06:52:01.168Z,11.80
2022-11-15T06:54:27.927Z,11.80
2022-11-15T06:56:54.618Z,11.80
2022-11-15T06:59:21.509Z,11.80
2022-11-15T07:01:48.331Z,11.80
2022-11-15T07:04:15.101Z,11.80
2022-11-15T07:06:41.845Z,11.70
2022-11-15T07:09:08.510Z,11.70
2022-11-15T07:11:35.327Z,11.70
2022-11-15T07:14:02.661Z,11.70
2022-11-15T07:16:29.346Z,11.70
2022-11-15T07:18:56.037Z,11.70
2022-11-15T07:21:27.448Z,11.70
2022-11-15T07:23:54.659Z,11.70
2022-11-15T07:26:21.579Z,11.70
2022-11-15T07:28:48.454Z,11.70
2022-11-15T07:31:15.250Z,11.70
2022-11-15T07:33:41.939Z,11.70
2022-11-15T07:36:09.423Z,11.70
2022-11-15T07:38:42.491Z,11.70
2022-11-15T07:41:09.712Z,11.70
2022-11-15T07:43:36.843Z,11.70
2022-11-15T07:46:10.138Z,11.70
2022-11-15T07:48:45.402Z,11.80
2022-11-15T07:51:17.306Z,11.80
2022-11-15T07:53:44.601Z,11.80
2022-11-15T07:56:11.718Z,11.90
2022-11-15T07:58:38.544Z,11.90
2022-11-15T08:01:07.410Z,12.00
2022-11-15T08:03:34.900Z,12.00
2022-11-15T08:06:02.008Z,12.00
2022-11-15T08:08:28.827Z,12.10
2022-11-15T08:10:55.535Z,12.20
2022-11-15T08:13:22.452Z,12.30
2022-11-15T08:15:53.435Z,12.30
2022-11-15T08:18:23.249Z,12.40
2022-11-15T08:20:50.083Z,12.30
2022-11-15T08:23:16.808Z,12.30
2022-11-15T08:25:43.764Z,12.30
2022-11-15T08:28:11.543Z,12.30
2022-11-15T08:30:42.625Z,12.30
2022-11-15T08:33:13.582Z,12.30
2022-11-15T08:35:41.901Z,12.30
2022-11-15T08:38:08.753Z,12.40
2022-11-15T08:40:36.583Z,12.40
2022-11-15T08:43:03.956Z,12.40
2022-11-15T08:45:31.426Z,12.40
2022-11-15T08:47:58.502Z,12.50
2022-11-15T08:50:25.255Z,12.50
2022-11-15T08:52:51.989Z,12.60
2022-11-15T08:55:18.893Z,12.60
2022-11-15T08:57:46.497Z,12.60
2022-11-15T09:00:14.398Z,12.70
2022-11-15T09:02:41.560Z,12.80
2022-11-15T09:05:09.261Z,12.80
2022-11-15T09:07:38.959Z,12.80
2022-11-15T09:10:06.216Z,12.90
2022-11-15T09:12:33.574Z,12.90
2022-11-15T09:15:00.261Z,12.90
2022-11-15T09:17:27.162Z,13.00
2022-11-15T09:19:53.887Z,13.00
2022-11-15T09:22:20.801Z,13.10
2022-11-15T09:24:47.653Z,13.10
2022-11-15T09:29:58.664Z,13.30
2022-11-15T09:32:28.846Z,13.40
2022-11-15T09:34:55.635Z,13.50
2022-11-15T09:37:22.527Z,13.60
2022-11-15T09:39:49.504Z,13.60
2022-11-15T09:42:33.389Z,13.60
2022-11-15T09:45:03.083Z,13.70
2022-11-15T09:47:57.538Z,13.70
2022-11-15T09:54:01.127Z,13.80
2022-11-15T09:56:33.879Z,13.80
2022-11-15T09:59:24.818Z,13.80
2022-11-15T10:02:18.898Z,13.80
2022-11-15T10:04:46.716Z,13.90
2022-11-15T10:08:05.896Z,13.90
2022-11-15T10:10:47.692Z,14.00
2022-11-15T10:13:23.554Z,14.10
2022-11-15T10:15:51.424Z,14.20
2022-11-15T10:18:35.331Z,14.30
2022-11-15T10:21:17.728Z,14.40
2022-11-15T10:23:44.496Z,14.50
2022-11-15T10:26:16.450Z,14.50
2022-11-15T10:28:43.275Z,14.60
2022-11-15T10:31:27.092Z,14.60
2022-11-15T10:34:13.640Z,14.70
2022-11-15T10:36:58.434Z,14.70
2022-11-15T10:39:26.095Z,14.80
2022-11-15T10:41:52.998Z,14.80
2022-11-15T10:44:29.247Z,14.90
2022-11-15T10:46:55.908Z,14.90
2022-11-15T10:49:26.464Z,14.90
2022-11-15T10:52:12.993Z,14.90
2022-11-15T10:54:49.131Z,14.90
2022-11-15T10:57:22.439Z,14.80
2022-11-15T11:00:22.950Z,14.90
2022-11-15T11:03:00.649Z,14.90
2022-11-15T11:05:42.635Z,14.90
2022-11-15T11:08:15.877Z,14.90
2022-11-15T11:11:03.138Z,14.90
2022-11-15T11:13:40.892Z,15.00
2022-11-15T11:16:41.588Z,15.00
2022-11-15T11:19:36.158Z,15.00
2022-11-15T11:22:24.744Z,15.00
2022-11-15T11:25:00.252Z,15.10
2022-11-15T11:27:55.869Z,15.10
2022-11-15T11:30:30.921Z,15.10
2022-11-15T11:33:16.660Z,15.10
2022-11-15T11:35:59.344Z,15.10
2022-11-15T11:38:26.130Z,15.10
2022-11-15T11:41:14.708Z,15.20
2022-11-15T11:44:05.612Z,15.20
2022-11-15T11:46:45.298Z,15.30
2022-11-15T11:49:19.982Z,15.40
2022-11-15T11:51:50.288Z,15.50
2022-11-15T11:54:39.061Z,15.60
2022-11-15T11:57:14.715Z,15.60
2022-11-15T11:59:49.632Z,15.70
2022-11-15T12:02:27.890Z,15.80
2022-11-15T12:05:04.048Z,16.00
2022-11-15T12:07:34.984Z,16.10
2022-11-15T12:10:04.756Z,16.10
2022-11-15T12:12:36.451Z,16.20
2022-11-15T12:15:38.602Z,16.20
2022-11-15T12:18:09.486Z,16.20
2022-11-15T12:20:40.859Z,16.10
2022-11-15T12:23:33.717Z,16.00
2022-11-15T12:26:13.586Z,16.00
2022-11-15T12:29:04.384Z,16.30
2022-11-15T12:31:36.510Z,16.50
2022-11-15T12:34:15.236Z,16.80
2022-11-15T12:36:46.221Z,17.00
2022-11-15T12:40:07.037Z,16.90
2022-11-15T12:42:42.125Z,16.80
2022-11-15T12:45:34.624Z,16.70
2022-11-15T12:48:19.375Z,16.60
2022-11-15T12:50:52.778Z,16.60
2022-11-15T12:53:25.612Z,16.50
2022-11-15T12:56:19.913Z,16.50
2022-11-15T12:58:53.849Z,16.50
2022-11-15T13:01:33.112Z,16.50
2022-11-15T13:04:28.149Z,16.50
2022-11-15T13:07:05.348Z,16.40
2022-11-15T13:09:36.079Z,16.30
2022-11-15T13:12:15.899Z,16.30
2022-11-15T13:14:44.779Z,16.30
2022-11-15T13:17:22.972Z,16.30
2022-11-15T13:20:08.696Z,16.30
2022-11-15T13:22:52.580Z,16.20
2022-11-15T13:25:27.353Z,16.10
2022-11-15T13:27:58.018Z,16.00
2022-11-15T13:30:30.921Z,15.80
2022-11-15T13:33:02.105Z,15.70
2022-11-15T13:35:40.091Z,15.70
2022-11-15T13:38:07.507Z,15.70
2022-11-15T13:40:38.591Z,15.60
2022-11-15T13:43:28.711Z,15.60
2022-11-15T13:46:26.161Z,15.50
2022-11-15T13:48:57.801Z,15.50
2022-11-15T13:51:45.077Z,15.40
2022-11-15T13:54:18.479Z,15.40
2022-11-15T13:56:50.807Z,15.30
2022-11-15T13:59:27.123Z,15.30
2022-11-15T14:01:55.996Z,15.30
2022-11-15T14:04:25.829Z,15.30
2022-11-15T14:06:56.639Z,15.30
2022-11-15T14:09:41.170Z,15.30
2022-11-15T14:12:36.098Z,15.30
2022-11-15T14:15:33.901Z,15.20
2022-11-15T14:18:01.895Z,15.20
2022-11-15T14:20:35.054Z,15.20
2022-11-15T14:23:25.724Z,15.20
2022-11-15T14:25:58.040Z,15.10
2022-11-15T14:28:24.724Z,15.10
2022-11-15T14:30:57.543Z,15.10
2022-11-15T14:33:24.436Z,15.10
2022-11-15T14:35:53.138Z,15.10
2022-11-15T14:38:20.078Z,15.10
2022-11-15T14:40:46.840Z,15.10
2022-11-15T14:43:14.517Z,15.00
2022-11-15T14:45:41.979Z,15.10
2022-11-15T14:48:09.335Z,15.10
2022-11-15T14:50:36.536Z,15.10
2022-11-15T14:53:04.046Z,15.20
2022-11-15T14:55:35.321Z,15.10
2022-11-15T14:58:04.173Z,15.10
2022-11-15T15:00:35.203Z,15.20
2022-11-15T15:03:03.426Z,15.20
2022-11-15T15:05:37.205Z,15.10
2022-11-15T15:08:05.323Z,15.10
2022-11-15T15:10:42.008Z,15.10
2022-11-15T15:13:29.655Z,15.00
2022-11-15T15:15:56.408Z,15.00
2022-11-15T15:18:23.171Z,15.00
2022-11-15T15:21:00.821Z,14.90
2022-11-15T15:23:30.336Z,14.90
2022-11-15T15:25:57.486Z,14.90
2022-11-15T15:28:24.605Z,14.80
2022-11-15T15:30:53.752Z,14.80
2022-11-15T15:33:20.598Z,14.80
2022-11-15T15:35:47.714Z,14.80
2022-11-15T15:38:16.383Z,14.80
2022-11-15T15:40:43.258Z,14.80
2022-11-15T15:43:10.450Z,14.80
2022-11-15T15:45:41.984Z,14.80
2022-11-15T15:48:18.441Z,14.70
2022-11-15T15:50:45.368Z,14.70
2022-11-15T15:53:13.824Z,14.70
2022-11-15T15:55:40.842Z,14.70
2022-11-15T15:58:09.290Z,14.70
2022-11-15T16:00:37.058Z,14.60
2022-11-15T16:03:03.994Z,14.60
2022-11-15T16:05:30.756Z,14.60
2022-11-15T16:07:57.488Z,14.60
2022-11-15T16:10:30.031Z,14.60
2022-11-15T16:12:58.307Z,14.60
2022-11-15T16:15:27.233Z,14.60
2022-11-15T16:17:56.227Z,14.60
2022-11-15T16:20:36.623Z,14.60
2022-11-15T16:23:08.924Z,14.60
2022-11-15T16:25:46.146Z,14.60
2022-11-15T16:28:18.328Z,14.60
2022-11-15T16:30:45.164Z,14.60
2022-11-15T16:33:12.099Z,14.60
2022-11-15T16:35:38.868Z,14.60
2022-11-15T16:38:05.611Z,14.60
2022-11-15T16:40:35.986Z,14.50
2022-11-15T16:43:04.469Z,14.60
2022-11-15T16:45:31.980Z,14.60
2022-11-15T16:47:58.819Z,14.60
2022-11-15T16:50:28.508Z,14.60
2022-11-15T16:52:59.859Z,14.60
2022-11-15T16:55:28.682Z,14.50
2022-11-15T16:57:58.306Z,14.50
2022-11-15T17:00:25.908Z,14.50
2022-11-15T17:02:53.558Z,14.50
2022-11-15T17:05:23.437Z,14.50
2022-11-15T17:07:54.814Z,14.50
2022-11-15T17:10:24.055Z,14.40
2022-11-15T17:12:52.080Z,14.40
2022-11-15T17:15:19.846Z,14.40
2022-11-15T17:17:55.348Z,14.40
2022-11-15T17:20:24.653Z,14.40
2022-11-15T17:22:52.713Z,14.50
2022-11-15T17:25:20.558Z,14.40
2022-11-15T17:27:47.960Z,14.40
2022-11-15T17:30:15.995Z,14.40
2022-11-15T17:32:44.041Z,14.40
2022-11-15T17:35:15.523Z,14.40
2022-11-15T17:37:43.298Z,14.50
2022-11-15T17:40:11.001Z,14.40
2022-11-15T17:42:40.159Z,14.40
2022-11-15T17:45:10.152Z,14.40
2022-11-15T17:47:37.401Z,14.40
2022-11-15T17:50:04.633Z,14.40
2022-11-15T17:52:31.490Z,14.30
2022-11-15T17:54:58.273Z,14.30
2022-11-15T17:57:25.070Z,14.30
2022-11-15T17:59:51.727Z,14.20
2022-11-15T18:02:19.471Z,14.10
2022-11-15T18:04:46.253Z,14.10
2022-11-15T18:07:14.161Z,14.10
2022-11-15T18:09:43.858Z,14.10
2022-11-15T18:12:12.109Z,14.00
2022-11-15T18:14:39.131Z,14.00
2022-11-15T18:17:06.158Z,14.00
2022-11-15T18:19:33.119Z,14.00
2022-11-15T18:22:01.428Z,13.90
2022-11-15T18:24:29.646Z,13.90
2022-11-15T18:26:57.725Z,13.90
2022-11-15T18:29:25.034Z,13.80
2022-11-15T18:31:55.668Z,13.80
2022-11-15T18:34:25.495Z,13.80
2022-11-15T18:36:53.268Z,13.70
2022-11-15T18:39:20.654Z,13.60
2022-11-15T18:41:48.261Z,13.60
2022-11-15T18:44:16.071Z,13.60
2022-11-15T18:46:45.041Z,13.60
2022-11-15T18:49:13.920Z,13.50
2022-11-15T18:51:44.107Z,13.40
2022-11-15T18:54:12.653Z,13.40
2022-11-15T18:56:39.702Z,13.30
2022-11-15T18:59:08.300Z,13.30
2022-11-15T19:01:37.774Z,13.30
2022-11-15T19:04:09.949Z,13.30
2022-11-15T19:06:41.826Z,13.20
2022-11-15T19:09:13.174Z,13.20
2022-11-15T19:11:40.505Z,13.20
2022-11-15T19:14:13.170Z,13.10
2022-11-15T19:16:44.564Z,13.10
2022-11-15T19:19:16.416Z,12.90
2022-11-15T19:21:43.673Z,13.00
2022-11-15T19:24:10.754Z,13.00
2022-11-15T19:26:38.340Z,13.00
2022-11-15T19:29:06.867Z,12.90
2022-11-15T19:31:34.276Z,12.90
2022-11-15T19:34:04.416Z,12.90
2022-11-15T19:36:33.699Z,12.80
2022-11-15T19:39:08.380Z,12.80
2022-11-15T19:41:36.430Z,12.80
2022-11-15T19:44:03.720Z,12.80
2022-11-15T19:46:30.898Z,12.80
2022-11-15T19:48:58.007Z,12.80
2022-11-15T19:51:27.723Z,12.80
2022-11-15T19:53:56.981Z,12.70
2022-11-15T19:56:24.603Z,12.70
2022-11-15T19:58:53.389Z,12.70
2022-11-15T20:01:25.386Z,12.70
2022-11-15T20:03:57.763Z,12.70
2022-11-15T20:06:31.990Z,12.70
2022-11-15T20:08:59.198Z,12.70
2022-11-15T20:11:26.486Z,12.70
2022-11-15T20:13:58.113Z,12.60
2022-11-15T20:16:25.565Z,12.60
2022-11-15T20:18:53.212Z,12.60
2022-11-15T20:21:21.533Z,12.70
2022-11-15T20:23:50.710Z,12.60
2022-11-15T20:26:20.126Z,12.60
2022-11-15T20:28:48.154Z,12.60
2022-11-15T20:31:15.194Z,12.60
2022-11-15T20:33:41.991Z,12.60
2022-11-15T20:36:12.103Z,12.60
2022-11-15T20:38:39.285Z,12.60
2022-11-15T20:41:06.316Z,12.60
2022-11-15T20:43:33.061Z,12.60
2022-11-15T20:45:59.829Z,12.60
2022-11-15T20:48:27.269Z,12.60
2022-11-15T20:51:07.254Z,12.60
2022-11-15T20:53:35.273Z,12.60
2022-11-15T20:56:19.941Z,12.60
2022-11-15T20:58:47.338Z,12.60
2022-11-15T21:01:15.488Z,12.60
2022-11-15T21:03:43.055Z,12.60
2022-11-15T21:06:10.862Z,12.60
2022-11-15T21:08:56.574Z,12.60
2022-11-15T21:11:42.998Z,12.60
2022-11-15T21:14:09.924Z,12.60
2022-11-15T21:16:37.927Z,12.60
2022-11-15T21:19:06.990Z,12.60
2022-11-15T21:21:35.580Z,12.60
2022-11-15T21:24:07.132Z,12.60
2022-11-15T21:26:34.688Z,12.60
2022-11-15T21:29:02.117Z,12.60
2022-11-15T21:31:29.112Z,12.60
2022-11-15T21:33:55.973Z,12.60
2022-11-15T21:36:24.958Z,12.60
2022-11-15T21:38:51.688Z,12.50
2022-11-15T21:41:18.367Z,12.60
2022-11-15T21:43:45.156Z,12.60
2022-11-15T21:46:11.976Z,12.50
2022-11-15T21:48:38.778Z,12.50
2022-11-15T21:51:10.088Z,12.50
2022-11-15T21:53:36.957Z,12.50
2022-11-15T21:56:03.980Z,12.50
2022-11-15T21:58:31.468Z,12.50
2022-11-15T22:01:17.844Z,12.50
2022-11-15T22:03:44.735Z,12.50
2022-11-15T22:06:17.247Z,12.50
2022-11-15T22:08:46.305Z,12.50
2022-11-15T22:11:14.444Z,12.50
2022-11-15T22:13:41.554Z,12.50
2022-11-15T22:16:09.983Z,12.40
2022-11-15T22:18:37.633Z,12.40
2022-11-15T22:21:07.334Z,12.40
2022-11-15T22:23:34.706Z,12.40
2022-11-15T22:26:01.719Z,12.40
2022-11-15T22:28:28.742Z,12.40
2022-11-15T22:30:56.446Z,12.40
2022-11-15T22:33:28.509Z,12.40
2022-11-15T22:35:55.980Z,12.40
2022-11-15T22:38:23.629Z,12.40
2022-11-15T22:40:50.833Z,12.40
2022-11-15T22:43:20.192Z,12.40
2022-11-15T22:45:56.530Z,12.40
2022-11-15T22:48:25.938Z,12.40
2022-11-15T22:50:53.448Z,12.40
2022-11-15T22:53:20.957Z,12.30
2022-11-15T22:55:58.142Z,12.40
2022-11-15T22:58:26.579Z,12.30
2022-11-15T23:00:57.230Z,12.30
2022-11-15T23:03:25.453Z,12.40
2022-11-15T23:05:52.376Z,12.30
2022-11-15T23:08:19.558Z,12.30
2022-11-15T23:11:05.652Z,12.30
2022-11-15T23:13:33.695Z,12.30
2022-11-15T23:16:23.152Z,12.30
2022-11-15T23:18:56.424Z,12.30
2022-11-15T23:21:46.177Z,12.30
2022-11-15T23:24:14.537Z,12.20
2022-11-15T23:26:42.132Z,12.30
2022-11-15T23:29:11.433Z,12.20
2022-11-15T23:32:02.043Z,12.20
2022-11-15T23:34:31.268Z,12.30
2022-11-15T23:36:58.863Z,12.20
2022-11-15T23:39:25.708Z,12.30
2022-11-15T23:41:52.562Z,12.30
2022-11-15T23:44:19.412Z,12.20
2022-11-15T23:46:46.380Z,12.30
2022-11-15T23:49:13.356Z,12.20
2022-11-15T23:51:40.539Z,12.20
2022-11-15T23:54:08.389Z,12.20
2022-11-15T23:56:35.412Z,12.20
2022-11-15T23:59:02.256Z,12.20
